createdAt,value
2018-09-03T00:00:59.170Z,2.00
2018-09-03T00:03:27.834Z,2.10
2018-09-03T00:05:56.377Z,1.70
2018-09-03T00:08:24.964Z,2.00
2018-09-03T00:10:53.434Z,3.80
2018-09-03T00:13:22.243Z,3.33
2018-09-03T00:15:50.732Z,3.17
2018-09-03T00:18:19.468Z,3.07
2018-09-03T00:20:47.930Z,2.13
2018-09-03T00:23:16.456Z,2.47
2018-09-03T00:25:44.936Z,1.70
2018-09-03T00:28:13.629Z,1.60
2018-09-03T00:30:42.310Z,1.40
2018-09-03T00:33:16.114Z,1.40
2018-09-03T00:35:49.905Z,1.20
2018-09-03T00:38:23.638Z,1.10
2018-09-03T00:40:57.502Z,1.20
2018-09-03T00:43:31.322Z,1.20
2018-09-03T00:46:05.070Z,1.27
2018-09-03T00:48:33.544Z,1.20
2018-09-03T00:51:02.222Z,1.20
2018-09-03T00:53:30.745Z,1.00
2018-09-03T00:55:59.415Z,0.90
2018-09-03T00:58:27.954Z,1.33
2018-09-03T01:00:56.537Z,1.60
2018-09-03T01:03:25.218Z,1.20
2018-09-03T01:05:53.775Z,1.33
2018-09-03T01:08:22.550Z,1.17
2018-09-03T01:10:51.135Z,1.00
2018-09-03T01:13:20.743Z,1.40
2018-09-03T01:15:49.195Z,1.00
2018-09-03T01:18:17.799Z,1.40
2018-09-03T01:20:48.210Z,1.57
2018-09-03T01:23:16.862Z,1.20
2018-09-03T01:25:45.397Z,1.30
2018-09-03T01:28:13.904Z,1.27
2018-09-03T01:30:42.469Z,1.20
2018-09-03T01:33:11.041Z,1.10
2018-09-03T01:35:39.702Z,1.60
2018-09-03T01:38:08.222Z,1.20
2018-09-03T01:40:36.737Z,1.37
2018-09-03T01:43:05.282Z,0.97
2018-09-03T01:45:33.793Z,1.47
2018-09-03T01:48:02.741Z,1.10
2018-09-03T01:50:31.332Z,1.13
2018-09-03T01:53:00.122Z,1.30
2018-09-03T01:55:28.614Z,1.30
2018-09-03T01:57:57.486Z,1.17
2018-09-03T02:00:25.966Z,1.47
2018-09-03T02:02:54.617Z,1.40
2018-09-03T02:05:23.139Z,1.43
2018-09-03T02:07:51.618Z,1.40
2018-09-03T02:10:20.210Z,1.27
2018-09-03T02:12:48.694Z,1.30
2018-09-03T02:15:17.409Z,1.43
2018-09-03T02:17:45.932Z,1.40
2018-09-03T02:20:14.555Z,1.37
2018-09-03T02:22:43.210Z,1.40
2018-09-03T02:25:11.801Z,1.40
2018-09-03T02:27:40.422Z,1.30
2018-09-03T02:30:08.979Z,1.53
2018-09-03T02:32:37.747Z,2.13
2018-09-03T02:35:06.387Z,1.33
2018-09-03T02:37:35.050Z,2.53
2018-09-03T02:40:03.636Z,1.30
2018-09-03T02:42:32.475Z,1.47
2018-09-03T02:45:00.970Z,1.57
2018-09-03T02:47:29.493Z,1.37
2018-09-03T02:49:57.982Z,1.30
2018-09-03T02:52:26.449Z,1.43
2018-09-03T02:54:55.503Z,1.40
2018-09-03T02:57:24.000Z,1.57
2018-09-03T02:59:52.671Z,2.20
2018-09-03T03:02:21.193Z,1.97
2018-09-03T03:04:49.722Z,2.40
2018-09-03T03:07:18.250Z,2.20
2018-09-03T03:09:46.739Z,2.30
2018-09-03T03:12:19.606Z,2.40
2018-09-03T03:14:48.088Z,2.30
2018-09-03T03:17:16.682Z,2.70
2018-09-03T03:19:45.178Z,2.43
2018-09-03T03:22:13.873Z,2.60
2018-09-03T03:24:42.349Z,2.50
2018-09-03T03:27:11.110Z,2.40
2018-09-03T03:29:39.570Z,1.97
2018-09-03T03:32:08.070Z,2.50
2018-09-03T03:34:36.606Z,1.93
2018-09-03T03:37:05.187Z,1.93
2018-09-03T03:39:33.909Z,2.07
2018-09-03T03:42:02.572Z,2.13
2018-09-03T03:44:31.402Z,2.13
2018-09-03T03:47:00.048Z,2.13
2018-09-03T03:49:28.774Z,2.03
2018-09-03T03:51:57.250Z,2.60
2018-09-03T03:54:25.943Z,2.37
2018-09-03T03:56:54.423Z,2.60
2018-09-03T03:59:23.032Z,2.57
2018-09-03T04:01:51.746Z,2.40
2018-09-03T04:04:20.210Z,2.40
2018-09-03T04:06:48.821Z,2.90
2018-09-03T04:09:17.282Z,3.03
2018-09-03T04:11:45.977Z,3.07
2018-09-03T04:14:14.441Z,2.93
2018-09-03T04:16:43.061Z,3.30
2018-09-03T04:19:11.714Z,3.20
2018-09-03T04:21:40.219Z,3.00
2018-09-03T04:24:09.074Z,3.30
2018-09-03T04:26:37.678Z,3.13
2018-09-03T04:29:06.366Z,3.40
2018-09-03T04:31:34.945Z,3.00
2018-09-03T04:34:03.484Z,3.00
2018-09-03T04:36:32.187Z,2.87
2018-09-03T04:39:00.687Z,2.77
2018-09-03T04:41:29.246Z,2.60
2018-09-03T04:43:57.786Z,2.57
2018-09-03T04:46:26.502Z,3.10
2018-09-03T04:48:55.039Z,2.50
2018-09-03T04:51:23.678Z,3.10
2018-09-03T04:53:52.377Z,3.13
2018-09-03T04:56:20.938Z,3.47
2018-09-03T04:58:49.498Z,3.53
2018-09-03T05:01:18.257Z,3.10
2018-09-03T05:03:46.970Z,3.30
2018-09-03T05:06:15.520Z,3.20
2018-09-03T05:08:44.419Z,3.40
2018-09-03T05:11:12.950Z,2.93
2018-09-03T05:13:41.516Z,3.30
2018-09-03T05:16:10.155Z,3.37
2018-09-03T05:18:38.737Z,3.10
2018-09-03T05:21:07.366Z,3.47
2018-09-03T05:23:35.967Z,3.80
2018-09-03T05:26:04.815Z,3.43
2018-09-03T05:28:33.376Z,3.97
2018-09-03T05:31:01.967Z,3.67
2018-09-03T05:33:30.630Z,3.77
2018-09-03T05:35:59.191Z,3.67
2018-09-03T05:38:27.891Z,3.57
2018-09-03T05:40:56.367Z,3.67
2018-09-03T05:43:25.286Z,3.70
2018-09-03T05:45:53.794Z,4.10
2018-09-03T05:48:27.782Z,4.33
2018-09-03T05:50:56.373Z,4.27
2018-09-03T05:53:24.895Z,4.03
2018-09-03T05:55:53.548Z,4.60
2018-09-03T05:58:22.250Z,4.30
2018-09-03T06:00:50.862Z,3.93
2018-09-03T06:03:19.568Z,3.90
2018-09-03T06:05:48.365Z,3.93
2018-09-03T06:08:17.786Z,3.87
2018-09-03T06:10:46.371Z,3.70
2018-09-03T06:13:14.994Z,3.97
2018-09-03T06:15:43.726Z,3.60
2018-09-03T06:18:12.846Z,3.87
2018-09-03T06:20:41.812Z,3.40
2018-09-03T06:23:17.253Z,3.40
2018-09-03T06:25:45.738Z,3.23
2018-09-03T06:28:14.478Z,3.07
2018-09-03T06:30:43.081Z,3.20
2018-09-03T06:33:11.776Z,2.97
2018-09-03T06:35:40.300Z,2.70
2018-09-03T06:38:09.338Z,3.07
2018-09-03T06:40:38.022Z,3.10
2018-09-03T06:43:06.853Z,3.10
2018-09-03T06:45:35.389Z,2.50
2018-09-03T06:48:04.311Z,2.60
2018-09-03T06:50:34.034Z,2.80
2018-09-03T06:53:02.699Z,2.50
2018-09-03T06:55:31.646Z,3.10
2018-09-03T06:58:00.280Z,2.63
2018-09-03T07:00:28.954Z,2.53
2018-09-03T07:02:57.478Z,2.70
2018-09-03T07:05:26.082Z,2.77
2018-09-03T07:07:54.594Z,2.27
2018-09-03T07:10:23.226Z,2.57
2018-09-03T07:12:51.926Z,2.70
2018-09-03T07:15:20.462Z,2.60
2018-09-03T07:17:49.210Z,2.60
2018-09-03T07:20:17.778Z,2.30
2018-09-03T07:22:46.343Z,2.80
2018-09-03T07:25:14.806Z,2.30
2018-09-03T07:27:43.548Z,2.60
2018-09-03T07:30:12.247Z,2.37
2018-09-03T07:32:40.850Z,2.40
2018-09-03T07:35:09.544Z,2.20
2018-09-03T07:37:38.031Z,2.20
2018-09-03T07:40:07.375Z,2.65
2018-09-03T07:42:35.861Z,2.33
2018-09-03T07:45:04.663Z,2.07
2018-09-03T07:47:33.319Z,2.50
2018-09-03T07:50:01.922Z,2.45
2018-09-03T07:52:30.423Z,2.50
2018-09-03T07:54:58.914Z,2.33
2018-09-03T07:57:27.944Z,2.45
2018-09-03T07:59:56.539Z,2.37
2018-09-03T08:02:25.180Z,2.77
2018-09-03T08:04:53.670Z,2.50
2018-09-03T08:07:22.268Z,2.60
2018-09-03T08:09:50.958Z,2.80
2018-09-03T08:12:19.442Z,2.80
2018-09-03T08:14:48.114Z,2.70
2018-09-03T08:17:16.576Z,2.35
2018-09-03T08:19:45.348Z,2.70
2018-09-03T08:22:13.822Z,2.87
2018-09-03T08:24:42.412Z,2.85
2018-09-03T08:27:10.910Z,2.95
2018-09-03T08:29:39.506Z,2.75
2018-09-03T08:32:08.334Z,3.15
2018-09-03T08:34:36.856Z,2.58
2018-09-03T08:37:05.763Z,2.77
2018-09-03T08:39:34.223Z,3.30
2018-09-03T08:42:02.786Z,2.60
2018-09-03T08:44:31.258Z,3.00
2018-09-03T08:46:59.820Z,3.10
2018-09-03T08:49:28.494Z,3.20
2018-09-03T08:51:57.110Z,2.75
2018-09-03T08:54:25.899Z,2.87
2018-09-03T08:56:54.549Z,3.15
2018-09-03T08:59:23.719Z,2.90
2018-09-03T09:01:52.310Z,2.47
2018-09-03T09:04:21.024Z,2.62
2018-09-03T09:06:49.602Z,2.52
2018-09-03T09:09:18.186Z,2.40
2018-09-03T09:11:46.976Z,2.22
2018-09-03T09:14:15.407Z,2.75
2018-09-03T09:16:44.198Z,2.47
2018-09-03T09:19:12.658Z,2.77
2018-09-03T09:21:41.155Z,2.50
2018-09-03T09:24:09.682Z,1.72
2018-09-03T09:26:38.145Z,2.27
2018-09-03T09:29:06.829Z,2.33
2018-09-03T09:31:35.290Z,2.20
2018-09-03T09:34:04.151Z,2.00
2018-09-03T09:36:32.634Z,2.08
2018-09-03T09:39:01.235Z,2.20
2018-09-03T09:41:33.226Z,2.17
2018-09-03T09:44:03.130Z,2.00
2018-09-03T09:46:31.613Z,2.20
2018-09-03T09:49:00.312Z,1.92
2018-09-03T09:51:29.206Z,1.90
2018-09-03T09:53:58.498Z,1.52
2018-09-03T09:56:27.066Z,1.72
2018-09-03T09:58:55.714Z,1.52
2018-09-03T10:01:29.422Z,1.67
2018-09-03T10:03:58.130Z,1.57
2018-09-03T10:06:26.628Z,1.40
2018-09-03T10:08:55.468Z,1.62
2018-09-03T10:11:24.023Z,1.65
2018-09-03T10:13:52.677Z,1.50
2018-09-03T10:16:21.266Z,1.47
2018-09-03T10:18:49.788Z,1.40
2018-09-03T10:21:18.568Z,1.65
2018-09-03T10:23:47.146Z,1.52
2018-09-03T10:26:16.055Z,1.65
2018-09-03T10:28:44.654Z,1.40
2018-09-03T10:31:13.307Z,1.60
2018-09-03T10:33:42.059Z,1.30
2018-09-03T10:36:10.566Z,1.47
2018-09-03T10:38:39.086Z,1.42
2018-09-03T10:41:07.631Z,1.47
2018-09-03T10:43:36.518Z,1.55
2018-09-03T10:46:05.143Z,1.57
2018-09-03T10:48:33.999Z,1.42
2018-09-03T10:51:02.554Z,1.07
2018-09-03T10:53:31.182Z,1.40
2018-09-03T10:55:59.669Z,1.40
2018-09-03T10:58:28.150Z,1.50
2018-09-03T11:00:56.794Z,1.60
2018-09-03T11:03:25.274Z,1.35
2018-09-03T11:05:53.959Z,1.20
2018-09-03T11:08:22.458Z,1.65
2018-09-03T11:10:51.126Z,1.30
2018-09-03T11:13:19.690Z,1.57
2018-09-03T11:15:48.182Z,0.98
2018-09-03T11:18:16.843Z,1.32
2018-09-03T11:20:45.326Z,1.55
2018-09-03T11:23:14.193Z,1.17
2018-09-03T11:25:43.250Z,1.57
2018-09-03T11:28:12.625Z,1.32
2018-09-03T11:30:41.200Z,1.15
2018-09-03T11:33:09.774Z,1.30
2018-09-03T11:35:38.261Z,1.10
2018-09-03T11:38:06.837Z,1.22
2018-09-03T11:40:35.545Z,1.55
2018-09-03T11:43:04.126Z,1.20
2018-09-03T11:45:33.007Z,1.30
2018-09-03T11:48:01.471Z,1.20
2018-09-03T11:50:30.011Z,1.10
2018-09-03T11:52:58.538Z,1.30
2018-09-03T11:55:27.045Z,1.07
2018-09-03T11:57:55.682Z,1.20
2018-09-03T12:00:29.908Z,1.10
2018-09-03T12:02:59.162Z,1.30
2018-09-03T12:05:28.642Z,1.10
2018-09-03T12:07:57.191Z,1.30
2018-09-03T12:10:26.265Z,1.30
2018-09-03T12:12:54.798Z,1.30
2018-09-03T12:15:28.805Z,1.42
2018-09-03T12:17:57.372Z,2.30
2018-09-03T12:20:26.414Z,1.60
2018-09-03T12:22:54.951Z,1.70
2018-09-03T12:25:23.950Z,1.72
2018-09-03T12:27:52.415Z,1.72
2018-09-03T12:30:21.294Z,1.80
2018-09-03T12:32:49.837Z,1.90
2018-09-03T12:35:18.637Z,1.87
2018-09-03T12:37:47.206Z,2.10
2018-09-03T12:40:15.744Z,2.30
2018-09-03T12:42:44.250Z,2.20
2018-09-03T12:45:12.858Z,2.20
2018-09-03T12:47:41.611Z,2.52
2018-09-03T12:50:10.255Z,1.80
2018-09-03T12:52:38.863Z,1.87
2018-09-03T12:55:07.695Z,2.60
2018-09-03T12:57:36.517Z,2.30
2018-09-03T13:00:05.707Z,2.37
2018-09-03T13:02:39.418Z,2.45
2018-09-03T13:05:02.245Z,2.47
2018-09-03T13:07:30.742Z,2.37
2018-09-03T13:09:59.665Z,2.40
2018-09-03T13:12:28.140Z,3.20
2018-09-03T13:14:56.953Z,3.65
2018-09-03T13:17:25.513Z,2.45
2018-09-03T13:19:54.061Z,2.30
2018-09-03T13:22:22.624Z,2.65
2018-09-03T13:24:51.166Z,2.50
2018-09-03T13:27:20.094Z,2.45
2018-09-03T13:29:48.546Z,2.17
2018-09-03T13:32:17.247Z,2.15
2018-09-03T13:34:45.747Z,2.45
2018-09-03T13:37:14.360Z,2.33
2018-09-03T13:39:42.885Z,2.65
2018-09-03T13:42:11.493Z,2.10
2018-09-03T13:44:40.221Z,2.50
2018-09-03T13:47:08.939Z,2.60
2018-09-03T13:49:37.712Z,3.12
2018-09-03T13:52:06.438Z,2.65
2018-09-03T13:54:35.074Z,2.85
2018-09-03T13:57:03.574Z,2.70
2018-09-03T13:59:32.038Z,3.00
2018-09-03T14:02:01.238Z,2.80
2018-09-03T14:04:29.712Z,2.70
2018-09-03T14:06:58.693Z,2.60
2018-09-03T14:09:27.247Z,2.30
2018-09-03T14:11:56.127Z,2.20
2018-09-03T14:14:24.674Z,2.90
2018-09-03T14:16:53.487Z,2.65
2018-09-03T14:19:22.070Z,2.37
2018-09-03T14:21:50.566Z,4.03
2018-09-03T14:24:19.654Z,2.40
2018-09-03T14:26:48.476Z,2.33
2018-09-03T14:29:17.505Z,2.40
2018-09-03T14:31:45.990Z,2.47
2018-09-03T14:34:14.476Z,2.50
2018-09-03T14:36:43.036Z,2.30
2018-09-03T14:39:12.398Z,2.30
2018-09-03T14:41:41.036Z,2.30
2018-09-03T14:44:10.158Z,2.10
2018-09-03T14:46:38.900Z,2.55
2018-09-03T14:49:07.720Z,1.80
2018-09-03T14:51:36.879Z,2.50
2018-09-03T14:54:05.434Z,2.35
2018-09-03T14:56:34.410Z,2.20
2018-09-03T14:59:02.906Z,2.65
2018-09-03T15:01:31.751Z,2.20
2018-09-03T15:04:00.360Z,2.75
2018-09-03T15:06:28.870Z,2.08
2018-09-03T15:08:57.358Z,2.10
2018-09-03T15:11:25.848Z,2.37
2018-09-03T15:13:59.252Z,2.12
2018-09-03T15:16:30.926Z,2.30
2018-09-03T15:19:00.458Z,2.20
2018-09-03T15:21:29.193Z,2.12
2018-09-03T15:23:57.783Z,2.17
2018-09-03T15:26:26.890Z,2.40
2018-09-03T15:28:55.491Z,1.92
2018-09-03T15:31:24.247Z,2.27
2018-09-03T15:33:53.036Z,2.25
2018-09-03T15:36:21.684Z,2.15
2018-09-03T15:38:50.246Z,2.30
2018-09-03T15:41:18.798Z,2.20
2018-09-03T15:43:47.842Z,2.90
2018-09-03T15:46:16.316Z,2.20
2018-09-03T15:48:46.050Z,2.00
2018-09-03T15:51:14.649Z,2.20
2018-09-03T15:53:43.482Z,2.15
2018-09-03T15:56:12.047Z,2.60
2018-09-03T15:58:40.598Z,2.80
2018-09-03T16:01:09.298Z,2.72
2018-09-03T16:03:37.880Z,2.80
2018-09-03T16:06:06.711Z,2.58
2018-09-03T16:08:35.242Z,2.47
2018-09-03T16:11:03.915Z,2.58
2018-09-03T16:13:32.578Z,3.00
2018-09-03T16:16:01.133Z,2.92
2018-09-03T16:18:29.779Z,3.30
2018-09-03T16:20:58.324Z,2.83
2018-09-03T16:23:28.129Z,3.50
2018-09-03T16:25:56.642Z,2.67
2018-09-03T16:28:25.627Z,2.72
2018-09-03T16:30:54.090Z,2.58
2018-09-03T16:33:22.921Z,2.12
2018-09-03T16:35:51.532Z,2.10
2018-09-03T16:38:20.002Z,2.55
2018-09-03T16:40:48.526Z,2.37
2018-09-03T16:43:17.010Z,2.40
2018-09-03T16:45:45.934Z,2.10
2018-09-03T16:48:14.602Z,2.60
2018-09-03T16:50:43.666Z,2.50
2018-09-03T16:53:12.231Z,2.33
2018-09-03T16:55:41.588Z,2.67
2018-09-03T16:58:10.234Z,2.22
2018-09-03T17:00:38.789Z,2.12
2018-09-03T17:03:07.444Z,2.10
2018-09-03T17:05:36.170Z,2.40
2018-09-03T17:08:05.063Z,2.20
2018-09-03T17:10:33.450Z,2.10
2018-09-03T17:13:02.278Z,2.17
2018-09-03T17:15:30.914Z,2.20
2018-09-03T17:17:59.612Z,2.37
2018-09-03T17:20:29.306Z,2.33
2018-09-03T17:22:57.894Z,2.30
2018-09-03T17:25:26.433Z,2.47
2018-09-03T17:27:54.930Z,2.62
2018-09-03T17:30:23.595Z,2.50
2018-09-03T17:32:52.094Z,2.20
2018-09-03T17:35:20.708Z,2.60
2018-09-03T17:37:49.293Z,1.90
2018-09-03T17:40:18.062Z,2.60
2018-09-03T17:42:46.717Z,2.30
2018-09-03T17:45:15.195Z,2.50
2018-09-03T17:47:45.323Z,2.60
2018-09-03T17:50:13.902Z,2.12
2018-09-03T17:52:42.381Z,2.25
2018-09-03T17:55:11.681Z,2.42
2018-09-03T17:57:40.287Z,2.00
2018-09-03T18:00:08.834Z,2.58
2018-09-03T18:02:37.369Z,2.60
2018-09-03T18:05:06.186Z,2.10
2018-09-03T18:07:34.718Z,2.35
2018-09-03T18:10:03.321Z,2.42
2018-09-03T18:12:31.902Z,3.10
2018-09-03T18:15:00.898Z,2.72
2018-09-03T18:17:29.410Z,3.02
2018-09-03T18:19:58.058Z,3.02
2018-09-03T18:22:26.686Z,3.00
2018-09-03T18:24:55.161Z,2.67
2018-09-03T18:27:23.853Z,2.62
2018-09-03T18:29:52.333Z,3.10
2018-09-03T18:32:24.724Z,2.50
2018-09-03T18:34:53.272Z,3.10
2018-09-03T18:37:22.605Z,2.95
2018-09-03T18:39:51.211Z,3.27
2018-09-03T18:42:20.019Z,2.95
2018-09-03T18:44:48.670Z,3.27
2018-09-03T18:47:17.660Z,3.25
2018-09-03T18:49:46.151Z,2.95
2018-09-03T18:52:15.047Z,3.08
2018-09-03T18:54:43.631Z,3.20
2018-09-03T18:57:12.187Z,3.25
2018-09-03T18:59:40.754Z,2.87
2018-09-03T19:02:09.238Z,2.70
2018-09-03T19:04:37.978Z,2.50
2018-09-03T19:07:06.629Z,2.25
2018-09-03T19:09:35.399Z,2.57
2018-09-03T19:12:03.934Z,2.65
2018-09-03T19:14:33.643Z,2.60
2018-09-03T19:17:02.206Z,2.62
2018-09-03T19:19:31.038Z,2.40
2018-09-03T19:21:59.955Z,3.03
2018-09-03T19:24:30.292Z,2.80
2018-09-03T19:26:58.887Z,2.63
2018-09-03T19:29:27.542Z,2.23
2018-09-03T19:31:56.348Z,2.70
2018-09-03T19:34:24.950Z,2.80
2018-09-03T19:36:54.263Z,2.67
2018-09-03T19:39:22.913Z,3.07
2018-09-03T19:41:52.743Z,2.60
2018-09-03T19:44:21.559Z,2.80
2018-09-03T19:46:50.358Z,2.97
2018-09-03T19:49:18.918Z,2.70
2018-09-03T19:51:47.665Z,3.33
2018-09-03T19:54:16.358Z,2.87
2018-09-03T19:56:45.086Z,3.03
2018-09-03T19:59:13.746Z,2.93
2018-09-03T20:01:42.359Z,3.10
2018-09-03T20:04:11.117Z,2.90
2018-09-03T20:06:39.782Z,2.90
2018-09-03T20:09:08.485Z,2.53
2018-09-03T20:11:37.971Z,3.13
2018-09-03T20:14:07.190Z,2.90
2018-09-03T20:16:35.994Z,3.37
2018-09-03T20:19:04.610Z,3.20
2018-09-03T20:21:33.138Z,2.97
2018-09-03T20:24:01.705Z,2.97
2018-09-03T20:26:30.441Z,3.07
2018-09-03T20:28:58.910Z,3.20
2018-09-03T20:31:28.376Z,3.10
2018-09-03T20:33:56.987Z,2.93
2018-09-03T20:36:26.907Z,3.23
2018-09-03T20:38:55.408Z,3.27
2018-09-03T20:41:24.062Z,3.30
2018-09-03T20:43:52.538Z,3.43
2018-09-03T20:46:21.055Z,3.23
2018-09-03T20:48:49.914Z,3.50
2018-09-03T20:51:18.574Z,2.70
2018-09-03T20:53:47.190Z,2.87
2018-09-03T20:56:15.847Z,2.97
2018-09-03T20:58:44.583Z,3.27
2018-09-03T21:01:13.158Z,3.37
2018-09-03T21:03:41.746Z,3.07
2018-09-03T21:06:10.353Z,2.90
2018-09-03T21:08:38.870Z,3.40
2018-09-03T21:11:07.749Z,3.30
2018-09-03T21:13:36.323Z,3.20
2018-09-03T21:16:05.266Z,3.27
2018-09-03T21:18:33.826Z,3.10
2018-09-03T21:21:02.318Z,3.07
2018-09-03T21:23:30.970Z,3.40
2018-09-03T21:25:59.655Z,2.93
2018-09-03T21:28:28.337Z,3.43
2018-09-03T21:30:56.816Z,3.47
2018-09-03T21:33:25.426Z,3.17
2018-09-03T21:35:53.918Z,3.67
2018-09-03T21:38:22.513Z,3.00
2018-09-03T21:40:51.090Z,3.00
2018-09-03T21:43:19.738Z,3.27
2018-09-03T21:45:48.266Z,3.10
2018-09-03T21:48:16.746Z,2.63
2018-09-03T21:50:45.567Z,3.40
2018-09-03T21:53:14.077Z,3.33
2018-09-03T21:55:43.103Z,3.30
2018-09-03T21:58:11.848Z,3.07
2018-09-03T22:00:40.553Z,3.40
2018-09-03T22:03:09.014Z,3.17
2018-09-03T22:05:37.542Z,3.67
2018-09-03T22:08:06.149Z,3.13
2018-09-03T22:10:34.694Z,3.87
2018-09-03T22:13:03.448Z,3.40
2018-09-03T22:15:31.930Z,3.37
2018-09-03T22:18:00.638Z,2.97
2018-09-03T22:20:29.135Z,3.03
2018-09-03T22:22:57.707Z,3.73
2018-09-03T22:25:26.274Z,3.60
2018-09-03T22:27:54.754Z,3.57
2018-09-03T22:30:23.425Z,3.90
2018-09-03T22:32:52.254Z,3.90
2018-09-03T22:35:20.938Z,3.17
2018-09-03T22:37:49.444Z,3.30
2018-09-03T22:40:18.214Z,3.60
2018-09-03T22:42:46.853Z,3.30
2018-09-03T22:45:15.516Z,3.00
2018-09-03T22:47:44.836Z,3.70
2018-09-03T22:50:13.402Z,3.30
2018-09-03T22:52:42.032Z,3.70
2018-09-03T22:55:10.598Z,3.17
2018-09-03T22:57:39.412Z,3.30
2018-09-03T23:00:08.000Z,3.47
2018-09-03T23:02:40.939Z,3.20
2018-09-03T23:05:09.466Z,3.27
2018-09-03T23:07:38.456Z,4.00
2018-09-03T23:10:07.554Z,3.70
2018-09-03T23:12:36.367Z,3.40
2018-09-03T23:15:05.186Z,3.43
2018-09-03T23:17:34.170Z,3.50
2018-09-03T23:20:02.646Z,3.97
2018-09-03T23:22:31.434Z,3.63
2018-09-03T23:24:59.902Z,3.57
2018-09-03T23:27:28.673Z,4.13
2018-09-03T23:29:57.226Z,4.10
2018-09-03T23:32:25.883Z,3.87
2018-09-03T23:34:54.774Z,3.60
2018-09-03T23:37:23.290Z,4.13
2018-09-03T23:39:52.052Z,4.27
2018-09-03T23:42:20.601Z,3.90
2018-09-03T23:44:49.704Z,4.00
2018-09-03T23:47:18.318Z,3.40
2018-09-03T23:49:46.992Z,3.90
2018-09-03T23:52:15.691Z,4.10
2018-09-03T23:54:44.189Z,4.20
2018-09-03T23:57:13.114Z,3.87
2018-09-03T23:59:41.680Z,4.13
